Latest METARs, TAFs and NOTAMs for ETSI


---------------------------------------------------------------------------
	(OBSERVATIONS)
ETSI 150320Z AUTO 23011KT //// // ////// 04/02 Q0994 ///=
ETSI 150220Z AUTO 22006KT //// // ////// 04/02 Q0994 ///=
ETSI 150120Z AUTO 22003KT //// // ////// 04/02 Q0994 ///=
---------------------------------------------------------------------------
	(FC)
TAF AMD ETSI 141445Z 1415/1424 22015G25KT 9999 NSW SCT030 BKN220
     BECMG 1416/1418 21012G22KT 9999 NSW SCT020 BKN035
     TEMPO 1419/1424 22015G25KT 3000 -RASN BKN015 BKN020 CANCEL 1500Z
     BY ETGL=
---------------------------------------------------------------------------
	(TERMINAL AREA FORECAST)
AMD ETSI 141445Z 1415/1424 22015G25KT 9999  NSW    SCT030 BKN220
    BECMG 1416/1418 21012G22KT 9999  NSW    SCT020 BKN035
    TEMPO 1419/1424 22015G25KT 3000 -RASN   BKN015 BKN020
    CANCEL 1500Z BY ETGL=
---------------------------------------------------------------------------
	(NOTAMS)


ETSI P6920/17 NO APCH END ARRESTMENT FOR RWY07L. 25 SEP 14:13
    2017 UNTIL 22 DEC 12:00 2017. CREATED: 26 SEP 21:29 2017

ETSI P8140/17 AD MIL OPENING HOURS CHANGED TO: MON-THU 0800-1500
    FR 0800-1200. 09 NOV 12:08 2017 UNTIL 22 DEC 12:00 2017.
    CREATED: 09 NOV 12:11 2017

ETSI P8346/17 PAPI 25R U/S. 16 NOV 10:31 2017 UNTIL 16 FEB 12:00
    2018. CREATED: 16 NOV 10:38 2017

ETSI P8347/17 PAR 25L/07R OUT 0F SERVICE. 16 NOV 10:35 2017 UNTIL
    16 FEB 12:00 2018. CREATED: 16 NOV 10:39 2017

ETSI P8348/17 NO SRA POSSIBLE. 16 NOV 10:36 2017 UNTIL 16 FEB
    12:00 2018. CREATED: 16 NOV 10:40 2017

ETSI P8349/17 LIMITED RADAR COVERAGE BELOW 5000FT MSL. DETAILED
    INFORMATION BY INGO RADAR. 16 NOV 10:38 2017 UNTIL 16 FEB
    12:00 2018. CREATED: 16 NOV 10:42 2017

ETSI P8350/17 PAR 25R/07L OUT OF SERVICE. 16 NOV 10:40 2017 UNTIL
    16 FEB 12:00 2018. CREATED: 16 NOV 10:42 2017

ETSI P8463/17 FREQUENCY 362.300 OUT OF SERVICE. 22 NOV 13:35
    2017 UNTIL 16 FEB 13:00 2018. CREATED: 22 NOV 13:40 2017

ETSI P8464/17 OM ILS RWY25L OUT OF SERVICE. 22 NOV 13:36 2017
    UNTIL 16 DEC 13:00 2017. CREATED: 22 NOV 13:41 2017

---------------------------------------------------------------------------